createdAt,value
2023-05-04T00:01:18.624Z,62.54
2023-05-04T00:03:47.090Z,62.50
2023-05-04T00:06:14.888Z,62.68
2023-05-04T00:08:42.547Z,63.26
2023-05-04T00:11:11.799Z,62.75
2023-05-04T00:13:39.094Z,62.96
2023-05-04T00:16:09.243Z,61.82
2023-05-04T00:18:38.844Z,62.88
2023-05-04T00:21:06.630Z,63.13
2023-05-04T00:23:34.176Z,63.17
2023-05-04T00:26:01.819Z,63.41
2023-05-04T00:28:29.776Z,62.96
2023-05-04T00:30:57.456Z,62.62
2023-05-04T00:33:25.548Z,62.29
2023-05-04T00:35:53.717Z,62.61
2023-05-04T00:38:23.192Z,62.35
2023-05-04T00:40:51.302Z,62.53
2023-05-04T00:43:18.584Z,63.09
2023-05-04T00:45:45.830Z,62.74
2023-05-04T00:48:14.461Z,62.24
2023-05-04T00:50:42.200Z,62.43
2023-05-04T00:53:10.770Z,62.06
2023-05-04T00:55:40.551Z,61.98
2023-05-04T00:58:09.448Z,62.57
2023-05-04T01:00:37.336Z,62.47
2023-05-04T01:03:05.268Z,61.84
2023-05-04T01:05:35.999Z,63.02
2023-05-04T01:08:06.942Z,62.73
2023-05-04T01:10:56.908Z,62.77
2023-05-04T01:13:24.156Z,62.82
2023-05-04T01:15:52.435Z,62.31
2023-05-04T01:18:19.782Z,62.46
2023-05-04T01:20:47.960Z,62.40
2023-05-04T01:23:17.296Z,62.23
2023-05-04T01:25:50.234Z,62.33
2023-05-04T01:28:23.756Z,62.41
2023-05-04T01:30:51.736Z,62.07
2023-05-04T01:33:19.789Z,62.40
2023-05-04T01:35:47.052Z,61.70
2023-05-04T01:38:14.498Z,62.16
2023-05-04T01:40:42.066Z,62.24
2023-05-04T01:43:09.580Z,62.19
2023-05-04T01:45:39.194Z,62.32
2023-05-04T01:48:06.819Z,62.12
2023-05-04T01:50:34.704Z,62.13
2023-05-04T01:53:03.926Z,62.79
2023-05-04T01:55:34.277Z,62.38
2023-05-04T01:58:01.707Z,62.36
2023-05-04T02:00:29.167Z,62.45
2023-05-04T02:03:00.422Z,62.12
2023-05-04T02:05:27.904Z,62.22
2023-05-04T02:07:56.785Z,62.42
2023-05-04T02:10:25.449Z,62.03
2023-05-04T02:12:53.108Z,62.18
2023-05-04T02:15:20.974Z,62.24
2023-05-04T02:17:49.264Z,62.26
2023-05-04T02:20:16.596Z,62.52
2023-05-04T02:22:46.357Z,62.55
2023-05-04T02:25:14.697Z,62.57
2023-05-04T02:27:42.464Z,62.87
2023-05-04T02:30:10.187Z,62.51
2023-05-04T02:32:39.065Z,62.38
2023-05-04T02:35:07.637Z,62.14
2023-05-04T02:37:35.981Z,62.10
2023-05-04T02:40:04.813Z,62.28
2023-05-04T02:42:33.969Z,61.92
2023-05-04T02:45:01.567Z,62.42
2023-05-04T02:47:29.149Z,62.90
2023-05-04T02:49:56.652Z,62.67
2023-05-04T02:52:24.721Z,62.50
2023-05-04T02:54:53.278Z,62.86
2023-05-04T02:57:21.113Z,62.95
2023-05-04T02:59:48.853Z,62.98
2023-05-04T03:02:17.938Z,62.72
2023-05-04T03:04:45.406Z,62.82
2023-05-04T03:07:14.471Z,62.52
2023-05-04T03:09:44.765Z,62.79
2023-05-04T03:12:15.251Z,62.29
2023-05-04T03:14:43.146Z,62.42
2023-05-04T03:17:10.499Z,63.02
2023-05-04T03:19:38.611Z,62.58
2023-05-04T03:22:06.833Z,62.57
2023-05-04T03:24:35.894Z,63.56
2023-05-04T03:27:03.723Z,63.00
2023-05-04T03:29:31.655Z,62.89
2023-05-04T03:31:59.518Z,62.98
2023-05-04T03:34:28.919Z,62.63
2023-05-04T03:36:59.074Z,63.47
2023-05-04T03:39:27.292Z,63.61
2023-05-04T03:41:55.133Z,63.37
2023-05-04T03:44:22.521Z,63.61
2023-05-04T03:46:51.174Z,63.84
2023-05-04T03:49:20.008Z,63.93
2023-05-04T03:51:47.537Z,64.45
2023-05-04T03:54:17.823Z,64.59
2023-05-04T03:56:47.177Z,64.17
2023-05-04T03:59:16.642Z,64.75
2023-05-04T04:01:44.873Z,64.08
2023-05-04T04:04:12.834Z,64.21
2023-05-04T04:06:43.597Z,63.96
2023-05-04T04:09:18.285Z,64.03
2023-05-04T04:11:47.434Z,64.26
2023-05-04T04:14:15.103Z,63.93
2023-05-04T04:16:44.706Z,63.44
2023-05-04T04:19:13.218Z,63.69
2023-05-04T04:21:42.030Z,63.94
2023-05-04T04:24:15.772Z,63.76
2023-05-04T04:26:47.859Z,64.17
2023-05-04T04:29:16.012Z,64.03
2023-05-04T04:31:45.087Z,63.70
2023-05-04T04:34:13.138Z,63.78
2023-05-04T04:36:42.074Z,63.93
2023-05-04T04:39:12.225Z,63.21
2023-05-04T04:41:44.914Z,63.30
2023-05-04T04:44:16.151Z,62.99
2023-05-04T04:46:46.927Z,61.99
2023-05-04T04:49:18.032Z,61.76
2023-05-04T04:51:45.937Z,62.24
2023-05-04T04:54:13.981Z,62.42
2023-05-04T04:56:52.090Z,62.06
2023-05-04T04:59:24.759Z,62.62
2023-05-04T05:01:53.766Z,63.50
2023-05-04T05:04:25.495Z,64.12
2023-05-04T05:06:54.654Z,63.53
2023-05-04T05:09:23.847Z,62.95
2023-05-04T05:11:55.845Z,62.72
2023-05-04T05:14:26.176Z,62.13
2023-05-04T05:16:54.816Z,61.80
2023-05-04T05:19:27.061Z,59.33
2023-05-04T05:21:57.159Z,57.94
2023-05-04T05:24:27.553Z,59.69
2023-05-04T05:26:56.050Z,59.38
2023-05-04T05:29:26.291Z,58.88
2023-05-04T05:31:54.056Z,58.60
2023-05-04T05:34:25.662Z,57.95
2023-05-04T05:36:54.344Z,58.16
2023-05-04T05:39:23.983Z,56.78
2023-05-04T05:41:58.991Z,57.42
2023-05-04T05:44:34.278Z,56.89
2023-05-04T05:47:05.860Z,56.68
2023-05-04T05:49:36.887Z,56.08
2023-05-04T05:52:07.289Z,54.66
2023-05-04T05:54:46.081Z,54.19
2023-05-04T05:57:15.578Z,53.94
2023-05-04T05:59:44.848Z,53.17
2023-05-04T06:02:15.004Z,53.71
2023-05-04T06:04:43.609Z,54.07
2023-05-04T06:07:13.773Z,53.29
2023-05-04T06:09:42.024Z,52.89
2023-05-04T06:12:12.327Z,52.58
2023-05-04T06:14:40.425Z,51.85
2023-05-04T06:17:10.907Z,51.02
2023-05-04T06:19:39.662Z,50.62
2023-05-04T06:22:07.127Z,49.51
2023-05-04T06:24:39.867Z,49.69
2023-05-04T06:27:11.672Z,49.68
2023-05-04T06:29:41.510Z,48.98
2023-05-04T06:32:10.053Z,48.44
2023-05-04T06:34:40.286Z,48.13
2023-05-04T06:37:16.217Z,44.88
2023-05-04T06:42:19.064Z,45.18
2023-05-04T06:44:49.194Z,47.22
2023-05-04T06:47:19.652Z,46.37
2023-05-04T06:49:48.022Z,46.98
2023-05-04T06:52:16.998Z,46.56
2023-05-04T06:54:44.543Z,46.58
2023-05-04T06:57:12.138Z,47.07
2023-05-04T06:59:39.666Z,46.89
2023-05-04T07:02:08.872Z,46.87
2023-05-04T07:04:37.334Z,46.51
2023-05-04T07:07:05.892Z,47.00
2023-05-04T07:09:35.402Z,47.00
2023-05-04T07:12:04.783Z,45.88
2023-05-04T07:14:35.097Z,44.14
2023-05-04T07:17:03.355Z,44.56
2023-05-04T07:19:33.274Z,44.60
2023-05-04T07:22:02.658Z,43.75
2023-05-04T07:24:31.043Z,44.46
2023-05-04T07:26:59.255Z,42.94
2023-05-04T07:29:27.491Z,44.01
2023-05-04T07:32:01.021Z,44.15
2023-05-04T07:34:44.443Z,42.77
2023-05-04T07:37:13.820Z,43.27
2023-05-04T07:39:50.986Z,43.81
2023-05-04T07:42:23.870Z,41.50
2023-05-04T07:44:52.219Z,42.27
2023-05-04T07:47:19.813Z,43.42
2023-05-04T07:49:49.078Z,42.88
2023-05-04T07:52:17.094Z,41.58
2023-05-04T07:54:44.383Z,41.73
2023-05-04T07:57:13.877Z,41.17
2023-05-04T07:59:44.056Z,41.66
2023-05-04T08:02:15.071Z,40.36
2023-05-04T08:04:47.219Z,40.62
2023-05-04T08:07:17.312Z,39.76
2023-05-04T08:09:48.177Z,39.46
2023-05-04T08:12:18.340Z,41.89
2023-05-04T08:14:51.676Z,40.06
2023-05-04T08:17:19.258Z,39.62
2023-05-04T08:19:48.880Z,40.64
2023-05-04T08:22:18.043Z,40.57
2023-05-04T08:24:49.128Z,42.30
2023-05-04T08:27:17.980Z,42.24
2023-05-04T08:29:47.773Z,41.20
2023-05-04T08:32:15.900Z,40.61
2023-05-04T08:34:44.447Z,40.87
2023-05-04T08:37:15.039Z,41.02
2023-05-04T08:39:54.973Z,40.40
2023-05-04T08:42:35.832Z,40.06
2023-05-04T08:45:06.087Z,39.96
2023-05-04T08:50:07.921Z,38.28
2023-05-04T08:52:37.920Z,39.44
2023-05-04T08:55:06.892Z,38.61
2023-05-04T08:57:36.060Z,39.24
2023-05-04T09:00:05.734Z,39.39
2023-05-04T09:02:33.525Z,39.37
2023-05-04T09:05:04.913Z,38.41
2023-05-04T09:07:33.133Z,38.33
2023-05-04T09:10:01.851Z,38.20
2023-05-04T09:12:31.900Z,37.83
2023-05-04T09:15:07.046Z,37.77
2023-05-04T09:17:42.080Z,37.41
2023-05-04T09:20:19.077Z,36.34
2023-05-04T09:22:46.785Z,38.06
2023-05-04T09:25:15.404Z,37.61
2023-05-04T09:27:52.524Z,38.71
2023-05-04T09:30:23.772Z,37.84
2023-05-04T09:32:53.959Z,38.72
2023-05-04T09:35:33.833Z,37.70
2023-05-04T09:38:02.633Z,38.25
2023-05-04T09:40:33.312Z,38.36
2023-05-04T09:43:02.825Z,38.71
2023-05-04T09:45:41.312Z,38.51
2023-05-04T09:48:19.198Z,38.08
2023-05-04T09:50:51.099Z,37.22
2023-05-04T09:53:21.132Z,39.23
2023-05-04T09:55:51.698Z,37.68
2023-05-04T09:58:20.048Z,38.87
2023-05-04T10:00:50.881Z,39.68
2023-05-04T10:03:21.977Z,37.57
2023-05-04T10:05:50.933Z,40.46
2023-05-04T10:08:19.976Z,40.95
2023-05-04T10:10:49.053Z,42.28
2023-05-04T10:13:17.875Z,42.77
2023-05-04T10:15:52.951Z,43.73
2023-05-04T10:18:46.199Z,42.51
2023-05-04T10:21:44.959Z,42.89
2023-05-04T10:24:16.002Z,42.21
2023-05-04T10:26:51.699Z,42.35
2023-05-04T10:29:23.846Z,39.51
2023-05-04T10:31:55.022Z,40.44
2023-05-04T10:34:30.497Z,40.67
2023-05-04T10:36:59.590Z,41.87
2023-05-04T10:39:29.780Z,41.68
2023-05-04T10:42:06.186Z,42.43
2023-05-04T10:44:35.636Z,41.86
2023-05-04T10:47:05.485Z,40.09
2023-05-04T10:49:37.224Z,40.05
2023-05-04T10:52:06.867Z,40.56
2023-05-04T10:54:37.770Z,39.14
2023-05-04T10:57:13.894Z,39.15
2023-05-04T10:59:49.806Z,37.63
2023-05-04T11:02:22.761Z,37.51
2023-05-04T11:04:58.175Z,37.04
2023-05-04T11:07:34.679Z,36.44
2023-05-04T11:10:06.392Z,37.48
2023-05-04T11:12:35.906Z,36.73
2023-05-04T11:15:16.812Z,36.11
2023-05-04T11:17:47.058Z,35.70
2023-05-04T11:20:25.661Z,35.50
2023-05-04T11:22:59.227Z,35.78
2023-05-04T11:25:30.788Z,36.01
2023-05-04T11:27:59.941Z,35.88
2023-05-04T11:30:34.495Z,36.32
2023-05-04T11:33:05.970Z,37.16
2023-05-04T11:35:36.091Z,38.13
2023-05-04T11:38:03.971Z,38.07
2023-05-04T11:40:32.319Z,39.28
2023-05-04T11:43:02.891Z,40.13
2023-05-04T11:45:39.430Z,38.92
2023-05-04T11:48:08.558Z,39.10
2023-05-04T11:50:39.208Z,39.77
2023-05-04T11:53:09.485Z,40.43
2023-05-04T11:55:39.344Z,40.98
2023-05-04T11:58:13.335Z,41.86
2023-05-04T12:00:45.888Z,41.84
2023-05-04T12:03:18.083Z,42.35
2023-05-04T12:05:57.290Z,42.91
2023-05-04T12:08:26.453Z,42.57
2023-05-04T12:11:16.843Z,42.88
2023-05-04T12:13:48.081Z,43.34
2023-05-04T12:16:21.192Z,43.07
2023-05-04T12:18:48.880Z,42.11
2023-05-04T12:21:19.580Z,42.17
2023-05-04T12:23:49.129Z,42.18
2023-05-04T12:26:19.648Z,41.49
2023-05-04T12:28:53.488Z,40.98
2023-05-04T12:31:25.410Z,40.59
2023-05-04T12:33:54.547Z,41.08
2023-05-04T12:36:24.636Z,40.67
2023-05-04T12:38:55.449Z,39.84
2023-05-04T12:41:23.936Z,39.50
2023-05-04T12:43:51.630Z,37.70
2023-05-04T12:46:22.900Z,38.00
2023-05-04T12:48:57.992Z,39.13
2023-05-04T12:51:27.890Z,37.27
2023-05-04T12:54:06.190Z,37.89
2023-05-04T12:56:36.248Z,37.65
2023-05-04T12:59:05.379Z,38.08
2023-05-04T13:04:19.935Z,37.67
2023-05-04T13:06:53.454Z,37.45
2023-05-04T13:09:32.201Z,37.85
2023-05-04T13:12:05.511Z,38.64
2023-05-04T13:14:39.816Z,37.02
2023-05-04T13:19:43.396Z,38.03
2023-05-04T13:27:25.142Z,39.04
2023-05-04T13:29:54.235Z,37.85
2023-05-04T13:32:26.654Z,39.65
2023-05-04T13:34:56.762Z,40.69
2023-05-04T13:37:25.912Z,41.87
2023-05-04T13:39:55.923Z,41.90
2023-05-04T13:45:03.240Z,41.11
2023-05-04T13:47:33.662Z,41.62
2023-05-04T13:50:02.549Z,41.10
2023-05-04T13:52:34.178Z,41.19
2023-05-04T13:55:03.430Z,41.82
2023-05-04T13:57:33.357Z,42.37
2023-05-04T14:00:07.522Z,41.13
2023-05-04T14:02:48.561Z,41.59
2023-05-04T14:07:59.015Z,40.53
2023-05-04T14:10:28.935Z,40.88
2023-05-04T14:13:02.016Z,41.35
2023-05-04T14:15:33.946Z,41.26
2023-05-04T14:18:03.061Z,41.58
2023-05-04T14:20:31.799Z,41.82
2023-05-04T14:23:01.506Z,41.66
2023-05-04T14:25:30.696Z,41.89
2023-05-04T14:27:59.963Z,41.51
2023-05-04T14:30:40.185Z,41.50
2023-05-04T14:33:09.212Z,40.98
2023-05-04T14:35:42.942Z,40.19
2023-05-04T14:40:47.101Z,42.25
2023-05-04T14:43:21.982Z,41.30
2023-05-04T14:45:51.490Z,41.61
2023-05-04T14:48:20.003Z,41.22
2023-05-04T14:50:48.869Z,41.79
2023-05-04T14:53:18.060Z,41.27
2023-05-04T14:55:47.892Z,42.28
2023-05-04T14:58:16.130Z,42.78
2023-05-04T15:03:22.097Z,42.30
2023-05-04T15:05:52.170Z,42.88
2023-05-04T15:08:34.110Z,42.45
2023-05-04T15:11:03.122Z,41.62
2023-05-04T15:13:34.025Z,41.65
2023-05-04T15:16:04.638Z,42.57
2023-05-04T15:18:35.379Z,42.04
2023-05-04T15:21:03.627Z,41.90
2023-05-04T15:23:37.411Z,42.80
2023-05-04T15:26:09.988Z,41.67
2023-05-04T15:28:37.712Z,41.78
2023-05-04T15:31:07.556Z,41.48
2023-05-04T15:33:45.078Z,42.05
2023-05-04T15:36:16.243Z,40.86
2023-05-04T15:38:45.147Z,42.44
2023-05-04T15:41:18.222Z,42.58
2023-05-04T15:43:48.235Z,42.20
2023-05-04T15:46:17.000Z,42.38
2023-05-04T15:48:47.345Z,42.78
2023-05-04T15:51:20.986Z,43.15
2023-05-04T15:53:56.001Z,43.11
2023-05-04T15:56:26.331Z,42.51
2023-05-04T15:59:03.973Z,43.01
2023-05-04T16:01:34.004Z,42.41
2023-05-04T16:04:02.682Z,42.82
2023-05-04T16:06:42.045Z,43.85
2023-05-04T16:09:19.038Z,43.02
2023-05-04T16:12:05.193Z,43.25
2023-05-04T16:14:34.326Z,43.34
2023-05-04T16:17:02.464Z,43.62
2023-05-04T16:19:31.946Z,43.72
2023-05-04T16:21:59.850Z,42.88
2023-05-04T16:24:34.968Z,43.94
2023-05-04T16:29:39.483Z,44.94
2023-05-04T16:32:10.969Z,43.28
2023-05-04T16:34:40.402Z,44.75
2023-05-04T16:37:10.952Z,45.26
2023-05-04T16:39:44.225Z,44.10
2023-05-04T16:42:14.178Z,44.42
2023-05-04T16:44:47.274Z,45.15
2023-05-04T16:47:16.659Z,44.68
2023-05-04T16:52:32.963Z,44.78
2023-05-04T16:55:05.147Z,44.79
2023-05-04T16:57:33.115Z,44.46
2023-05-04T17:00:04.105Z,44.12
2023-05-04T17:02:42.401Z,44.30
2023-05-04T17:05:10.970Z,43.43
2023-05-04T17:07:47.004Z,44.18
2023-05-04T17:12:56.173Z,43.92
2023-05-04T17:15:24.212Z,44.13
2023-05-04T17:17:53.025Z,44.19
2023-05-04T17:20:21.909Z,44.00
2023-05-04T17:22:56.130Z,44.44
2023-05-04T17:25:28.233Z,44.46
2023-05-04T17:28:05.973Z,43.87
2023-05-04T17:30:36.026Z,44.06
2023-05-04T17:33:13.181Z,45.05
2023-05-04T17:35:45.076Z,45.33
2023-05-04T17:38:19.272Z,44.64
2023-05-04T17:43:21.814Z,45.77
2023-05-04T17:45:56.258Z,46.03
2023-05-04T17:48:39.442Z,46.12
2023-05-04T17:51:17.231Z,46.28
2023-05-04T17:53:51.020Z,45.72
2023-05-04T17:56:33.295Z,45.22
2023-05-04T17:59:04.258Z,45.29
2023-05-04T18:01:32.595Z,45.83
2023-05-04T18:04:16.965Z,45.89
2023-05-04T18:06:50.673Z,46.75
2023-05-04T18:09:27.304Z,47.01
2023-05-04T18:11:59.211Z,46.99
2023-05-04T18:14:36.012Z,46.78
2023-05-04T18:17:04.266Z,47.35
2023-05-04T18:19:37.438Z,47.67
2023-05-04T18:22:15.277Z,47.47
2023-05-04T18:24:52.058Z,47.84
2023-05-04T18:27:24.227Z,47.86
2023-05-04T18:29:54.461Z,48.04
2023-05-04T18:32:32.069Z,48.54
2023-05-04T18:35:02.862Z,48.47
2023-05-04T18:37:38.981Z,48.81
2023-05-04T18:40:17.006Z,48.49
2023-05-04T18:42:52.494Z,48.83
2023-05-04T18:45:28.056Z,49.10
2023-05-04T18:48:08.009Z,49.62
2023-05-04T18:50:52.672Z,49.88
2023-05-04T18:53:30.259Z,50.22
2023-05-04T18:58:43.084Z,50.45
2023-05-04T19:01:17.011Z,50.76
2023-05-04T19:03:55.057Z,51.80
2023-05-04T19:06:28.033Z,51.60
2023-05-04T19:08:57.344Z,52.18
2023-05-04T19:11:26.982Z,52.29
2023-05-04T19:14:02.373Z,52.08
2023-05-04T19:16:37.147Z,52.27
2023-05-04T19:19:12.553Z,52.51
2023-05-04T19:21:45.847Z,52.57
2023-05-04T19:24:22.216Z,52.46
2023-05-04T19:27:01.999Z,52.32
2023-05-04T19:29:30.640Z,53.62
2023-05-04T19:32:12.048Z,53.62
2023-05-04T19:34:47.115Z,53.80
2023-05-04T19:39:58.985Z,53.98
2023-05-04T19:42:40.899Z,53.64
2023-05-04T19:45:14.072Z,53.86
2023-05-04T19:47:42.002Z,53.85
2023-05-04T19:50:12.068Z,55.04
2023-05-04T19:52:47.085Z,54.97
2023-05-04T19:55:22.249Z,54.81
2023-05-04T19:57:55.942Z,54.72
2023-05-04T20:00:31.008Z,54.92
2023-05-04T20:03:02.277Z,54.83
2023-05-04T20:05:38.411Z,54.68
2023-05-04T20:08:13.099Z,54.36
2023-05-04T20:10:42.171Z,54.46
2023-05-04T20:13:10.853Z,54.97
2023-05-04T20:15:39.848Z,56.15
2023-05-04T20:18:10.204Z,55.99
2023-05-04T20:20:39.969Z,55.99
2023-05-04T20:23:12.257Z,55.74
2023-05-04T20:25:43.008Z,56.21
2023-05-04T20:28:11.701Z,56.10
2023-05-04T20:30:41.165Z,56.63
2023-05-04T20:33:08.842Z,57.51
2023-05-04T20:35:36.654Z,55.66
2023-05-04T20:38:12.436Z,56.55
2023-05-04T20:40:50.913Z,56.72
2023-05-04T20:43:20.049Z,57.63
2023-05-04T20:45:49.248Z,57.16
2023-05-04T20:48:18.421Z,57.04
2023-05-04T20:50:47.302Z,57.07
2023-05-04T20:53:20.210Z,56.99
2023-05-04T20:55:50.014Z,57.77
2023-05-04T20:58:21.069Z,57.15
2023-05-04T21:01:01.899Z,57.41
2023-05-04T21:03:29.906Z,57.53
2023-05-04T21:05:58.425Z,57.66
2023-05-04T21:08:31.045Z,57.61
2023-05-04T21:11:02.552Z,58.15
2023-05-04T21:13:35.137Z,57.89
2023-05-04T21:16:03.985Z,57.79
2023-05-04T21:18:43.134Z,57.79
2023-05-04T21:21:11.800Z,57.27
2023-05-04T21:23:41.381Z,57.78
2023-05-04T21:26:10.291Z,57.84
2023-05-04T21:28:38.865Z,59.08
2023-05-04T21:31:09.082Z,58.88
2023-05-04T21:33:37.217Z,59.06
2023-05-04T21:36:16.287Z,59.25
2023-05-04T21:38:49.645Z,58.92
2023-05-04T21:41:18.028Z,59.09
2023-05-04T21:43:48.026Z,58.61
2023-05-04T21:46:19.235Z,58.83
2023-05-04T21:48:47.362Z,58.37
2023-05-04T21:51:15.393Z,59.07
2023-05-04T21:53:43.492Z,59.28
2023-05-04T21:56:11.856Z,59.43
2023-05-04T21:58:40.960Z,59.42
2023-05-04T22:01:09.171Z,58.01
2023-05-04T22:03:37.938Z,57.58
2023-05-04T22:06:06.589Z,57.72
2023-05-04T22:08:34.485Z,57.45
2023-05-04T22:11:02.870Z,57.98
2023-05-04T22:13:30.645Z,57.72
2023-05-04T22:15:58.393Z,57.84
2023-05-04T22:18:26.892Z,58.41
2023-05-04T22:20:55.129Z,59.21
2023-05-04T22:23:23.188Z,59.30
2023-05-04T22:25:51.217Z,59.30
2023-05-04T22:28:19.076Z,59.36
2023-05-04T22:30:57.346Z,59.33
2023-05-04T22:33:25.489Z,59.28
2023-05-04T22:35:53.486Z,59.07
2023-05-04T22:38:20.936Z,57.94
2023-05-04T22:40:50.155Z,57.08
2023-05-04T22:43:17.850Z,55.63
2023-05-04T22:45:45.535Z,53.69
2023-05-04T22:48:16.907Z,52.61
2023-05-04T22:50:45.190Z,50.79
2023-05-04T22:53:14.805Z,49.73
2023-05-04T22:55:43.895Z,48.92
2023-05-04T22:58:12.106Z,48.33
2023-05-04T23:00:40.175Z,47.71
2023-05-04T23:03:11.273Z,47.16
2023-05-04T23:05:39.199Z,47.11
2023-05-04T23:08:07.260Z,47.34
2023-05-04T23:10:35.707Z,47.04
2023-05-04T23:13:03.485Z,47.27
2023-05-04T23:15:33.561Z,47.60
2023-05-04T23:18:02.554Z,48.62
2023-05-04T23:20:30.029Z,48.79
2023-05-04T23:22:57.267Z,49.10
2023-05-04T23:25:26.409Z,49.91
2023-05-04T23:27:54.799Z,51.05
2023-05-04T23:30:22.570Z,50.69
2023-05-04T23:32:50.069Z,51.27
2023-05-04T23:35:18.026Z,51.72
2023-05-04T23:37:45.727Z,52.09
2023-05-04T23:40:13.683Z,52.05
2023-05-04T23:42:41.217Z,52.76
2023-05-04T23:45:09.325Z,52.52
2023-05-04T23:47:36.892Z,52.93
2023-05-04T23:50:05.182Z,52.72
2023-05-04T23:52:33.131Z,53.06
2023-05-04T23:55:00.804Z,52.96
2023-05-04T23:57:30.053Z,52.68
2023-05-04T23:59:57.408Z,52.80
